Time;durP1;ratioP1;P1;durP2;ratioP2;P2;SDS_P1;SDS_P2;PMS_P1;PMS_P2;Temp;Humidity;BMP_temperature;BMP_pressure;BME280_temperature;BME280_humidity;BME280_pressure;Samples;Min_cycle;Max_cycle;Signal;HPM_P1;HPM_P2
2023/10/18 00:00:33;;;;;;;;;;;;;;;;;;5051345;28;1968;-69
2023/10/18 00:03:01;;;;;;;;;;;;;;;;;;5051097;28;1137;-68
2023/10/18 00:05:27;;;;;;;;;;;;;;;;;;5051643;28;1292;-69
2023/10/18 00:07:54;;;;;;;;;;;;;;;;;;5051451;28;1112;-69
2023/10/18 00:10:20;;;;;;;;;;;;;;;;;;5053238;28;913;-68
2023/10/18 00:12:45;;;;;;;;;;;;;;;;;;5051796;28;1274;-67
2023/10/18 00:15:14;;;;;;;;;;;;;;;;;;5051568;28;1332;-68
2023/10/18 00:17:40;;;;;;;;;;;;;;;;;;5053524;28;899;-67
2023/10/18 00:20:13;;;;;;;;;;;;;;;;;;5051920;28;1967;-68
2023/10/18 00:22:39;;;;;;;;;;;;;;;;;;5052147;28;1345;-68
2023/10/18 00:25:06;;;;;;;;;;;;;;;;;;5052005;28;1350;-68
2023/10/18 00:27:31;;;;;;;;;;;;;;;;;;5053268;28;826;-67
2023/10/18 00:29:58;;;;;;;;;;;;;;;;;;5053998;28;1301;-68
2023/10/18 00:32:23;;;;;;;;;;;;;;;;;;5035713;28;1453;-68
2023/10/18 00:34:49;;;;;;;;;;;;;;;;;;5053707;28;808;-68
2023/10/18 00:37:21;;;;;;;;;;;;;;;;;;5035910;28;1409;-68
2023/10/18 00:39:46;;;;;;;;;;;;;;;;;;5052068;28;1953;-68
2023/10/18 00:42:28;;;;;;;;;;;;;;;;;;5053223;28;991;-68
2023/10/18 00:45:02;;;;;;;;;;;;;;;;;;5053253;28;919;-68
2023/10/18 00:47:28;;;;;;;;;;;;;;;;;;5053108;28;919;-68
2023/10/18 00:49:53;;;;;;;;;;;;;;;;;;5052045;28;1536;-69
2023/10/18 00:52:28;;;;;;;;;;;;;;;;;;5052310;28;1120;-69
2023/10/18 00:54:53;;;;;;;;;;;;;;;;;;5052640;28;1161;-68
2023/10/18 00:57:22;;;;;;;;;;;;;;;;;;5052910;28;845;-69
2023/10/18 00:59:49;;;;;;;;;;;;;;;;;;5049806;28;1902;-69
2023/10/18 01:02:19;;;;;;;;;;;;;;;;;;5046820;28;1223;-69
2023/10/18 01:04:44;;;;;;;;;;;;;;;;;;5048421;28;1274;-68
2023/10/18 01:07:15;;;;;;;;;;;;;;;;;;5052310;28;1019;-69
2023/10/18 01:09:47;;;;;;;;;;;;;;;;;;5051934;28;923;-69
2023/10/18 01:12:14;;;;;;;;;;;;;;;;;;5052297;28;864;-68
2023/10/18 01:14:40;;;;;;;;;;;;;;;;;;5050851;28;1441;-68
2023/10/18 01:17:07;;;;;;;;;;;;;;;;;;5050498;28;1302;-69
2023/10/18 01:19:32;;;;;;;;;;;;;;;;;;5052169;28;1910;-69
2023/10/18 01:21:58;;;;;;;;;;;;;;;;;;5051771;28;1015;-69
2023/10/18 01:24:28;;;;;;;;;;;;;;;;;;5034293;28;1464;-67
2023/10/18 01:26:53;;;;;;;;;;;;;;;;;;5051930;28;797;-67
2023/10/18 01:29:18;;;;;;;;;;;;;;;;;;5051983;28;814;-68
2023/10/18 01:31:45;;;;;;;;;;;;;;;;;;5050617;28;1312;-68
2023/10/18 01:34:10;;;;;;;;;;;;;;;;;;5051844;28;911;-68
2023/10/18 01:36:39;;;;;;;;;;;;;;;;;;5052229;28;873;-69
2023/10/18 01:39:09;;;;;;;;;;;;;;;;;;5051583;28;1894;-68
2023/10/18 01:41:38;;;;;;;;;;;;;;;;;;5051829;28;915;-68
2023/10/18 01:44:07;;;;;;;;;;;;;;;;;;5051724;28;853;-68
2023/10/18 01:46:36;;;;;;;;;;;;;;;;;;5051737;28;860;-68
2023/10/18 01:49:01;;;;;;;;;;;;;;;;;;5051311;28;837;-68
2023/10/18 01:51:28;;;;;;;;;;;;;;;;;;5051278;28;874;-68
2023/10/18 01:53:55;;;;;;;;;;;;;;;;;;5050607;28;925;-68
2023/10/18 01:56:21;;;;;;;;;;;;;;;;;;5051648;28;1087;-67
2023/10/18 01:58:46;;;;;;;;;;;;;;;;;;5051860;28;1973;-68
2023/10/18 02:01:13;;;;;;;;;;;;;;;;;;5033428;28;1329;-67
2023/10/18 02:03:41;;;;;;;;;;;;;;;;;;5051920;28;861;-68
2023/10/18 02:06:07;;;;;;;;;;;;;;;;;;5050312;28;1498;-68
2023/10/18 02:08:34;;;;;;;;;;;;;;;;;;5050626;28;1217;-68
2023/10/18 02:10:59;;;;;;;;;;;;;;;;;;5050238;28;1476;-68
2023/10/18 02:13:24;;;;;;;;;;;;;;;;;;5052078;28;955;-68
2023/10/18 02:15:50;;;;;;;;;;;;;;;;;;5033941;28;1193;-68
2023/10/18 02:18:16;;;;;;;;;;;;;;;;;;5033580;28;1977;-68
2023/10/18 02:20:50;;;;;;;;;;;;;;;;;;5050926;28;868;-68
2023/10/18 02:23:15;;;;;;;;;;;;;;;;;;5050357;28;1361;-68
2023/10/18 02:28:08;;;;;;;;;;;;;;;;;;5050835;28;828;-68
2023/10/18 02:30:34;;;;;;;;;;;;;;;;;;5051754;28;890;-68
2023/10/18 02:33:02;;;;;;;;;;;;;;;;;;5051118;28;995;-68
2023/10/18 02:35:27;;;;;;;;;;;;;;;;;;5050992;28;916;-67
2023/10/18 02:37:53;;;;;;;;;;;;;;;;;;5049830;28;902;-68
2023/10/18 02:40:29;;;;;;;;;;;;;;;;;;5049379;28;1969;-68
2023/10/18 02:42:55;;;;;;;;;;;;;;;;;;5050994;28;1382;-68
2023/10/18 02:45:22;;;;;;;;;;;;;;;;;;5050444;28;1275;-68
2023/10/18 02:47:51;;;;;;;;;;;;;;;;;;5051741;28;828;-68
2023/10/18 02:50:16;;;;;;;;;;;;;;;;;;5050138;28;1199;-68
2023/10/18 02:52:42;;;;;;;;;;;;;;;;;;5034433;28;975;-68
2023/10/18 02:55:11;;;;;;;;;;;;;;;;;;5051374;28;880;-68
2023/10/18 02:57:37;;;;;;;;;;;;;;;;;;5050376;28;955;-68
2023/10/18 03:00:10;;;;;;;;;;;;;;;;;;5050814;28;1898;-68
2023/10/18 03:02:36;;;;;;;;;;;;;;;;;;5051150;28;857;-68
2023/10/18 03:05:05;;;;;;;;;;;;;;;;;;5049411;28;889;-68
2023/10/18 03:07:30;;;;;;;;;;;;;;;;;;5050655;28;930;-67
2023/10/18 03:10:02;;;;;;;;;;;;;;;;;;5049634;28;1000;-68
2023/10/18 03:12:28;;;;;;;;;;;;;;;;;;5049258;28;1235;-69
2023/10/18 03:17:22;;;;;;;;;;;;;;;;;;5050214;28;749;-68
2023/10/18 03:19:50;;;;;;;;;;;;;;;;;;5049321;28;1923;-68
2023/10/18 03:22:19;;;;;;;;;;;;;;;;;;5050340;28;873;-68
2023/10/18 03:24:45;;;;;;;;;;;;;;;;;;5049682;28;1255;-68
2023/10/18 03:27:11;;;;;;;;;;;;;;;;;;5050055;28;833;-68
2023/10/18 03:29:43;;;;;;;;;;;;;;;;;;5049905;28;873;-69
2023/10/18 03:32:14;;;;;;;;;;;;;;;;;;5050375;28;849;-68
2023/10/18 03:34:41;;;;;;;;;;;;;;;;;;5049955;28;821;-68
2023/10/18 03:37:07;;;;;;;;;;;;;;;;;;5051470;28;817;-68
2023/10/18 03:39:32;;;;;;;;;;;;;;;;;;5054294;28;1910;-69
2023/10/18 03:42:02;;;;;;;;;;;;;;;;;;5054775;28;818;-68
2023/10/18 03:44:28;;;;;;;;;;;;;;;;;;5054278;28;944;-67
2023/10/18 03:47:11;;;;;;;;;;;;;;;;;;5054851;28;834;-67
2023/10/18 03:49:37;;;;;;;;;;;;;;;;;;5053644;28;1384;-67
2023/10/18 03:54:47;;;;;;;;;;;;;;;;;;5054489;28;871;-68
2023/10/18 03:57:19;;;;;;;;;;;;;;;;;;5053669;28;912;-68
2023/10/18 03:59:45;;;;;;;;;;;;;;;;;;5054341;28;1961;-68
2023/10/18 04:04:48;;;;;;;;;;;;;;;;;;5054312;28;848;-68
2023/10/18 04:07:16;;;;;;;;;;;;;;;;;;5053297;28;1052;-68
2023/10/18 04:12:29;;;;;;;;;;;;;;;;;;5053585;28;864;-68
2023/10/18 04:15:00;;;;;;;;;;;;;;;;;;5053638;28;868;-68
2023/10/18 04:17:36;;;;;;;;;;;;;;;;;;5053195;28;915;-68
2023/10/18 04:20:07;;;;;;;;;;;;;;;;;;5053521;28;1918;-68
2023/10/18 04:22:33;;;;;;;;;;;;;;;;;;5053525;28;943;-68
2023/10/18 04:24:58;;;;;;;;;;;;;;;;;;5054036;28;967;-68
2023/10/18 04:27:24;;;;;;;;;;;;;;;;;;5054121;28;928;-68
2023/10/18 04:29:49;;;;;;;;;;;;;;;;;;5053103;28;845;-68
2023/10/18 04:32:18;;;;;;;;;;;;;;;;;;5052610;28;857;-68
2023/10/18 04:34:44;;;;;;;;;;;;;;;;;;5054269;28;849;-68
2023/10/18 04:37:12;;;;;;;;;;;;;;;;;;5052969;28;892;-68
2023/10/18 04:39:38;;;;;;;;;;;;;;;;;;5054040;28;1894;-68
2023/10/18 04:42:06;;;;;;;;;;;;;;;;;;5053824;28;924;-68
2023/10/18 04:44:34;;;;;;;;;;;;;;;;;;5036206;28;1270;-68
2023/10/18 04:47:03;;;;;;;;;;;;;;;;;;5052325;28;1116;-68
2023/10/18 04:49:36;;;;;;;;;;;;;;;;;;5060678;28;1096;-68
2023/10/18 04:52:04;;;;;;;;;;;;;;;;;;5071631;28;1152;-68
2023/10/18 04:54:37;;;;;;;;;;;;;;;;;;5070819;28;1147;-68
2023/10/18 04:57:05;;;;;;;;;;;;;;;;;;5058514;28;1068;-67
2023/10/18 04:59:46;;;;;;;;;;;;;;;;;;5050569;28;1898;-67
2023/10/18 05:02:18;;;;;;;;;;;;;;;;;;5051471;28;1250;-67
2023/10/18 05:04:44;;;;;;;;;;;;;;;;;;5048494;28;1348;-68
2023/10/18 05:09:41;;;;;;;;;;;;;;;;;;5065140;28;1097;-68
2023/10/18 05:12:07;;;;;;;;;;;;;;;;;;5057737;28;1187;-68
2023/10/18 05:14:36;;;;;;;;;;;;;;;;;;5050989;28;1203;-67
2023/10/18 05:17:10;;;;;;;;;;;;;;;;;;5052823;28;1164;-67
2023/10/18 05:19:37;;;;;;;;;;;;;;;;;;5052535;28;1906;-67
2023/10/18 05:22:03;;;;;;;;;;;;;;;;;;5035229;28;1254;-67
2023/10/18 05:24:32;;;;;;;;;;;;;;;;;;5053114;28;892;-67
2023/10/18 05:26:58;;;;;;;;;;;;;;;;;;5052135;28;1708;-67
2023/10/18 05:29:23;;;;;;;;;;;;;;;;;;5051864;28;810;-67
2023/10/18 05:32:09;;;;;;;;;;;;;;;;;;5053502;28;849;-68
2023/10/18 05:34:49;;;;;;;;;;;;;;;;;;5051460;28;1313;-68
2023/10/18 05:37:14;;;;;;;;;;;;;;;;;;5050797;28;1301;-68
2023/10/18 05:39:49;;;;;;;;;;;;;;;;;;5050941;28;1906;-68
2023/10/18 05:42:20;;;;;;;;;;;;;;;;;;5064956;28;1382;-68
2023/10/18 05:44:47;;;;;;;;;;;;;;;;;;5071123;28;880;-68
2023/10/18 05:47:13;;;;;;;;;;;;;;;;;;5070456;28;928;-68
2023/10/18 05:49:41;;;;;;;;;;;;;;;;;;5071782;28;825;-68
2023/10/18 05:54:35;;;;;;;;;;;;;;;;;;5072010;28;698;-68
2023/10/18 05:57:00;;;;;;;;;;;;;;;;;;5071124;28;837;-69
2023/10/18 05:59:31;;;;;;;;;;;;;;;;;;5071582;28;1951;-68
2023/10/18 06:02:23;;;;;;;;;;;;;;;;;;5071412;28;951;-68
2023/10/18 06:04:49;;;;;;;;;;;;;;;;;;5071625;28;818;-67
2023/10/18 06:07:18;;;;;;;;;;;;;;;;;;5070054;28;847;-68
2023/10/18 06:09:46;;;;;;;;;;;;;;;;;;5071467;28;824;-68
2023/10/18 06:12:21;;;;;;;;;;;;;;;;;;5071568;28;856;-67
2023/10/18 06:14:47;;;;;;;;;;;;;;;;;;5070835;28;1237;-67
2023/10/18 06:17:12;;;;;;;;;;;;;;;;;;5070045;28;1171;-67
2023/10/18 06:19:38;;;;;;;;;;;;;;;;;;5072297;28;1942;-67
2023/10/18 06:22:28;;;;;;;;;;;;;;;;;;5070599;28;1237;-67
2023/10/18 06:24:51;;;;;;;;;;;;;;;;;;5071257;28;1190;-67
2023/10/18 06:27:17;;;;;;;;;;;;;;;;;;5069743;28;1182;-67
2023/10/18 06:29:43;;;;;;;;;;;;;;;;;;5071540;28;1150;-67
2023/10/18 06:32:13;;;;;;;;;;;;;;;;;;5070763;28;840;-67
2023/10/18 06:34:40;;;;;;;;;;;;;;;;;;5069849;28;1420;-67
2023/10/18 06:37:08;;;;;;;;;;;;;;;;;;5070987;28;871;-67
2023/10/18 06:39:37;;;;;;;;;;;;;;;;;;5070830;28;1959;-67
2023/10/18 06:42:12;;;;;;;;;;;;;;;;;;5069810;28;1392;-67
2023/10/18 06:44:38;;;;;;;;;;;;;;;;;;5069935;28;1631;-67
2023/10/18 06:47:06;;;;;;;;;;;;;;;;;;5071378;28;904;-67
2023/10/18 06:49:31;;;;;;;;;;;;;;;;;;5053013;28;1653;-67
2023/10/18 06:51:57;;;;;;;;;;;;;;;;;;5071120;28;948;-67
2023/10/18 06:54:31;;;;;;;;;;;;;;;;;;5069256;28;1456;-68
2023/10/18 06:56:57;;;;;;;;;;;;;;;;;;5071445;28;930;-66
2023/10/18 06:59:28;;;;;;;;;;;;;;;;;;5071164;28;1899;-67
2023/10/18 07:01:59;;;;;;;;;;;;;;;;;;5070669;28;832;-67
2023/10/18 07:04:28;;;;;;;;;;;;;;;;;;5054351;28;1484;-67
2023/10/18 07:06:57;;;;;;;;;;;;;;;;;;5070144;28;920;-67
2023/10/18 07:09:31;;;;;;;;;;;;;;;;;;5053412;28;1248;-67
2023/10/18 07:11:57;;;;;;;;;;;;;;;;;;5071266;28;1189;-67
2023/10/18 07:14:24;;;;;;;;;;;;;;;;;;5057173;28;1407;-67
2023/10/18 07:16:52;;;;;;;;;;;;;;;;;;5075859;28;840;-66
2023/10/18 07:19:26;;;;;;;;;;;;;;;;;;5056899;28;1969;-67
2023/10/18 07:21:55;;;;;;;;;;;;;;;;;;5074480;28;924;-67
2023/10/18 07:24:21;;;;;;;;;;;;;;;;;;5074558;28;829;-67
2023/10/18 07:26:46;;;;;;;;;;;;;;;;;;5074898;28;977;-67
2023/10/18 07:29:15;;;;;;;;;;;;;;;;;;5073051;28;1070;-67
2023/10/18 07:31:44;;;;;;;;;;;;;;;;;;5073461;28;836;-67
2023/10/18 07:34:17;;;;;;;;;;;;;;;;;;5072903;28;1241;-67
2023/10/18 07:36:44;;;;;;;;;;;;;;;;;;5073263;28;923;-67
2023/10/18 07:39:13;;;;;;;;;;;;;;;;;;5056727;28;1898;-67
2023/10/18 07:41:40;;;;;;;;;;;;;;;;;;5072723;28;1433;-68
2023/10/18 07:44:05;;;;;;;;;;;;;;;;;;5072786;28;939;-69
2023/10/18 07:46:34;;;;;;;;;;;;;;;;;;5072724;28;1246;-68
2023/10/18 07:49:11;;;;;;;;;;;;;;;;;;5072715;28;1262;-67
2023/10/18 07:51:43;;;;;;;;;;;;;;;;;;5057209;28;1093;-68
2023/10/18 07:54:08;;;;;;;;;;;;;;;;;;5074409;28;920;-68
2023/10/18 07:56:40;;;;;;;;;;;;;;;;;;5072815;28;1321;-67
2023/10/18 08:02:32;;;;;;;;;;;;;;;;;;5074994;28;615;-70
2023/10/18 08:04:40;;;;;;;;;;;;;;;;;;5065804;28;1072;-69
2023/10/18 08:07:15;;;;;;;;;;;;;;;;;;5074829;28;944;-70
2023/10/18 08:09:43;;;;;;;;;;;;;;;;;;5075172;28;868;-69
2023/10/18 08:12:19;;;;;;;;;;;;;;;;;;5075415;28;829;-70
2023/10/18 08:14:47;;;;;;;;;;;;;;;;;;5072995;28;1354;-70
2023/10/18 08:17:29;;;;;;;;;;;;;;;;;;5056549;28;1547;-70
2023/10/18 08:20:28;;;;;;;;;;;;;;;;;;5072434;28;1912;-70
2023/10/18 08:22:43;;;;;;;;;;;;;;;;;;5073829;28;1009;-71
2023/10/18 08:25:21;;;;;;;;;;;;;;;;;;5054868;28;1479;-70
2023/10/18 08:27:47;;;;;;;;;;;;;;;;;;5057800;28;1234;-70
2023/10/18 08:30:23;;;;;;;;;;;;;;;;;;5073516;28;887;-69
2023/10/18 08:32:51;;;;;;;;;;;;;;;;;;5072349;28;1228;-69
2023/10/18 08:35:19;;;;;;;;;;;;;;;;;;5073446;28;816;-69
2023/10/18 08:37:45;;;;;;;;;;;;;;;;;;5073020;28;1329;-69
2023/10/18 08:40:37;;;;;;;;;;;;;;;;;;5072156;28;1955;-69
2023/10/18 08:43:06;;;;;;;;;;;;;;;;;;5072982;28;1075;-69
2023/10/18 08:45:36;;;;;;;;;;;;;;;;;;5071863;28;1342;-69
2023/10/18 08:48:09;;;;;;;;;;;;;;;;;;5074338;28;828;-69
2023/10/18 08:50:35;;;;;;;;;;;;;;;;;;5073725;28;916;-69
2023/10/18 08:53:01;;;;;;;;;;;;;;;;;;5073819;28;920;-69
2023/10/18 08:55:43;;;;;;;;;;;;;;;;;;5073951;28;841;-69
2023/10/18 08:58:10;;;;;;;;;;;;;;;;;;5072512;28;892;-69
2023/10/18 09:03:01;;;;;;;;;;;;;;;;;;5073456;28;1018;-68
2023/10/18 09:05:26;;;;;;;;;;;;;;;;;;5071457;28;995;-69
2023/10/18 09:07:53;;;;;;;;;;;;;;;;;;5073418;28;926;-69
2023/10/18 09:15:36;;;;;;;;;;;;;;;;;;5052938;28;1203;-69
2023/10/18 09:18:05;;;;;;;;;;;;;;;;;;5033212;28;1192;-69
2023/10/18 09:20:31;;;;;;;;;;;;;;;;;;5048732;28;1906;-69
2023/10/18 09:23:03;;;;;;;;;;;;;;;;;;5056651;28;1153;-69
2023/10/18 09:25:32;;;;;;;;;;;;;;;;;;5050059;28;1329;-69
2023/10/18 09:28:09;;;;;;;;;;;;;;;;;;5034893;28;1479;-70
2023/10/18 09:30:35;;;;;;;;;;;;;;;;;;5050497;28;845;-69
2023/10/18 09:33:01;;;;;;;;;;;;;;;;;;5052692;28;869;-68
2023/10/18 09:35:27;;;;;;;;;;;;;;;;;;5051666;28;832;-69
2023/10/18 09:37:53;;;;;;;;;;;;;;;;;;5052142;28;993;-69
2023/10/18 09:40:18;;;;;;;;;;;;;;;;;;5051309;28;1965;-69
2023/10/18 09:42:44;;;;;;;;;;;;;;;;;;5051817;28;884;-69
2023/10/18 09:45:09;;;;;;;;;;;;;;;;;;5050409;28;1357;-69
2023/10/18 09:47:35;;;;;;;;;;;;;;;;;;5050194;28;936;-69
2023/10/18 09:50:06;;;;;;;;;;;;;;;;;;5051448;28;895;-69
2023/10/18 09:52:32;;;;;;;;;;;;;;;;;;5051239;28;899;-69
2023/10/18 09:55:00;;;;;;;;;;;;;;;;;;5050848;28;1346;-70
2023/10/18 09:57:33;;;;;;;;;;;;;;;;;;5052339;28;802;-70
2023/10/18 10:00:08;;;;;;;;;;;;;;;;;;5052007;28;1910;-70
2023/10/18 10:02:34;;;;;;;;;;;;;;;;;;5052041;28;853;-69
2023/10/18 10:05:06;;;;;;;;;;;;;;;;;;5052389;28;852;-68
2023/10/18 10:07:39;;;;;;;;;;;;;;;;;;5051521;28;973;-69
2023/10/18 10:10:17;;;;;;;;;;;;;;;;;;5051218;28;1440;-69
2023/10/18 10:12:44;;;;;;;;;;;;;;;;;;5052105;28;884;-69
2023/10/18 10:15:19;;;;;;;;;;;;;;;;;;5052648;28;979;-68
2023/10/18 10:17:56;;;;;;;;;;;;;;;;;;5051616;28;904;-69
2023/10/18 10:20:23;;;;;;;;;;;;;;;;;;5051411;28;1918;-68
2023/10/18 10:22:48;;;;;;;;;;;;;;;;;;5051042;28;1237;-70
2023/10/18 10:25:31;;;;;;;;;;;;;;;;;;5051061;28;959;-69
2023/10/18 10:27:59;;;;;;;;;;;;;;;;;;5052677;28;872;-68
2023/10/18 10:30:34;;;;;;;;;;;;;;;;;;5051383;28;928;-69
2023/10/18 10:32:59;;;;;;;;;;;;;;;;;;5050736;28;1334;-69
2023/10/18 10:35:25;;;;;;;;;;;;;;;;;;5055390;28;1263;-69
2023/10/18 10:38:06;;;;;;;;;;;;;;;;;;5065567;28;1128;-69
2023/10/18 10:43:03;;;;;;;;;;;;;;;;;;5052338;28;1176;-69
2023/10/18 10:45:41;;;;;;;;;;;;;;;;;;5054289;28;1133;-69
2023/10/18 10:48:30;;;;;;;;;;;;;;;;;;5063600;28;1168;-69
2023/10/18 10:51:16;;;;;;;;;;;;;;;;;;5064025;28;1167;-69
2023/10/18 10:53:45;;;;;;;;;;;;;;;;;;5068591;28;1313;-69
2023/10/18 10:56:17;;;;;;;;;;;;;;;;;;5071250;28;1132;-70
2023/10/18 10:58:44;;;;;;;;;;;;;;;;;;5054802;28;1962;-69
2023/10/18 11:01:12;;;;;;;;;;;;;;;;;;5054520;28;1392;-69
2023/10/18 11:03:53;;;;;;;;;;;;;;;;;;5036517;28;921;-69
2023/10/18 11:06:24;;;;;;;;;;;;;;;;;;5053253;28;945;-69
2023/10/18 11:08:53;;;;;;;;;;;;;;;;;;5053720;28;1321;-69
2023/10/18 11:11:22;;;;;;;;;;;;;;;;;;5054458;28;841;-69
2023/10/18 11:13:50;;;;;;;;;;;;;;;;;;5053433;28;1314;-69
2023/10/18 11:16:22;;;;;;;;;;;;;;;;;;5054882;28;948;-69
2023/10/18 11:18:52;;;;;;;;;;;;;;;;;;5054760;28;1910;-69
2023/10/18 11:21:19;;;;;;;;;;;;;;;;;;5055144;28;873;-70
2023/10/18 11:23:57;;;;;;;;;;;;;;;;;;5053586;28;1254;-69
2023/10/18 11:26:27;;;;;;;;;;;;;;;;;;5053524;28;1186;-69
2023/10/18 11:29:05;;;;;;;;;;;;;;;;;;5053931;28;1942;-69
2023/10/18 11:31:31;;;;;;;;;;;;;;;;;;5053771;28;833;-69
2023/10/18 11:34:05;;;;;;;;;;;;;;;;;;5053272;28;1283;-69
2023/10/18 11:36:32;;;;;;;;;;;;;;;;;;5052546;28;897;-69
2023/10/18 11:39:18;;;;;;;;;;;;;;;;;;5053794;28;1964;-69
2023/10/18 11:41:44;;;;;;;;;;;;;;;;;;5066046;28;1235;-69
2023/10/18 11:44:13;;;;;;;;;;;;;;;;;;5069140;28;1234;-70
2023/10/18 11:46:58;;;;;;;;;;;;;;;;;;5073561;28;1242;-69
2023/10/18 11:49:33;;;;;;;;;;;;;;;;;;5074678;28;875;-69
2023/10/18 11:51:58;;;;;;;;;;;;;;;;;;5075005;28;904;-70
2023/10/18 11:54:31;;;;;;;;;;;;;;;;;;5074991;28;844;-69
2023/10/18 11:56:57;;;;;;;;;;;;;;;;;;5058575;28;1243;-69
2023/10/18 11:59:23;;;;;;;;;;;;;;;;;;5074814;28;1898;-70
2023/10/18 12:01:55;;;;;;;;;;;;;;;;;;5074993;28;1384;-70
2023/10/18 12:04:27;;;;;;;;;;;;;;;;;;5073071;28;1433;-70
2023/10/18 12:06:53;;;;;;;;;;;;;;;;;;5053701;28;1255;-70
2023/10/18 12:11:43;;;;;;;;;;;;;;;;;;5054961;28;651;-69
2023/10/18 12:14:09;;;;;;;;;;;;;;;;;;5054725;28;908;-69
2023/10/18 12:16:34;;;;;;;;;;;;;;;;;;5054540;28;876;-69
2023/10/18 12:19:00;;;;;;;;;;;;;;;;;;5053222;28;1969;-70
2023/10/18 12:21:29;;;;;;;;;;;;;;;;;;5054110;28;821;-69
2023/10/18 12:23:55;;;;;;;;;;;;;;;;;;5052445;28;857;-69
2023/10/18 12:26:24;;;;;;;;;;;;;;;;;;5052655;28;1211;-69
2023/10/18 12:28:51;;;;;;;;;;;;;;;;;;5052760;28;908;-69
2023/10/18 12:31:26;;;;;;;;;;;;;;;;;;5052521;28;1357;-69
2023/10/18 12:33:51;;;;;;;;;;;;;;;;;;5052204;28;1570;-70
2023/10/18 12:36:23;;;;;;;;;;;;;;;;;;5036038;28;1381;-69
2023/10/18 12:38:48;;;;;;;;;;;;;;;;;;5053519;28;1964;-70
2023/10/18 12:41:27;;;;;;;;;;;;;;;;;;5053083;28;868;-69
2023/10/18 12:43:53;;;;;;;;;;;;;;;;;;5051796;28;1319;-70
2023/10/18 12:46:21;;;;;;;;;;;;;;;;;;5052311;28;833;-69
2023/10/18 12:48:49;;;;;;;;;;;;;;;;;;5052836;28;853;-69
2023/10/18 12:51:17;;;;;;;;;;;;;;;;;;5053095;28;833;-70
2023/10/18 12:53:49;;;;;;;;;;;;;;;;;;5052579;28;863;-70
2023/10/18 12:58:54;;;;;;;;;;;;;;;;;;5052938;28;1898;-69
2023/10/18 13:01:22;;;;;;;;;;;;;;;;;;5051884;28;1310;-70
2023/10/18 13:03:56;;;;;;;;;;;;;;;;;;5052023;28;928;-69
2023/10/18 13:06:30;;;;;;;;;;;;;;;;;;5052946;28;1263;-69
2023/10/18 13:08:56;;;;;;;;;;;;;;;;;;5053335;28;999;-70
2023/10/18 13:14:05;;;;;;;;;;;;;;;;;;5053479;28;840;-67
2023/10/18 13:16:31;;;;;;;;;;;;;;;;;;5052957;28;873;-68
2023/10/18 13:18:57;;;;;;;;;;;;;;;;;;5052221;28;1964;-68
2023/10/18 13:21:27;;;;;;;;;;;;;;;;;;5034851;28;1193;-68
2023/10/18 13:23:56;;;;;;;;;;;;;;;;;;5051532;28;1251;-68
2023/10/18 13:26:26;;;;;;;;;;;;;;;;;;5034976;28;1445;-68
2023/10/18 13:28:52;;;;;;;;;;;;;;;;;;5050981;28;860;-69
2023/10/18 13:31:30;;;;;;;;;;;;;;;;;;5051671;28;822;-69
2023/10/18 13:33:55;;;;;;;;;;;;;;;;;;5050147;28;1203;-69
2023/10/18 13:36:24;;;;;;;;;;;;;;;;;;5050188;28;1191;-68
2023/10/18 13:38:49;;;;;;;;;;;;;;;;;;5049898;28;1897;-68
2023/10/18 13:41:15;;;;;;;;;;;;;;;;;;5051847;28;951;-68
2023/10/18 13:43:41;;;;;;;;;;;;;;;;;;5051673;28;884;-68
2023/10/18 13:46:08;;;;;;;;;;;;;;;;;;5036074;28;1223;-68
2023/10/18 13:48:33;;;;;;;;;;;;;;;;;;5053432;28;861;-69
2023/10/18 13:51:02;;;;;;;;;;;;;;;;;;5051838;28;935;-69
2023/10/18 13:53:28;;;;;;;;;;;;;;;;;;5053188;28;880;-70
2023/10/18 13:55:59;;;;;;;;;;;;;;;;;;5053129;28;868;-69
2023/10/18 13:58:25;;;;;;;;;;;;;;;;;;5053423;28;893;-70
2023/10/18 14:00:51;;;;;;;;;;;;;;;;;;5053310;28;1898;-69
2023/10/18 14:03:19;;;;;;;;;;;;;;;;;;5052056;28;829;-69
2023/10/18 14:05:45;;;;;;;;;;;;;;;;;;5052247;28;1073;-70
2023/10/18 14:08:16;;;;;;;;;;;;;;;;;;5052734;28;902;-69
2023/10/18 14:10:42;;;;;;;;;;;;;;;;;;5051961;28;880;-70
2023/10/18 14:13:08;;;;;;;;;;;;;;;;;;5052499;28;969;-69
2023/10/18 14:15:34;;;;;;;;;;;;;;;;;;5050585;28;853;-69
2023/10/18 14:18:01;;;;;;;;;;;;;;;;;;5052157;28;916;-70
2023/10/18 14:20:26;;;;;;;;;;;;;;;;;;5051250;28;1973;-69
2023/10/18 14:22:58;;;;;;;;;;;;;;;;;;5050012;28;960;-69
2023/10/18 14:25:24;;;;;;;;;;;;;;;;;;5052054;28;837;-69
2023/10/18 14:27:52;;;;;;;;;;;;;;;;;;5051761;28;896;-69
2023/10/18 14:30:18;;;;;;;;;;;;;;;;;;5051543;28;880;-68
2023/10/18 14:32:44;;;;;;;;;;;;;;;;;;5033767;28;1357;-69
2023/10/18 14:35:09;;;;;;;;;;;;;;;;;;5052162;28;920;-69
2023/10/18 14:37:35;;;;;;;;;;;;;;;;;;5051694;28;810;-68
2023/10/18 14:40:01;;;;;;;;;;;;;;;;;;5051350;28;1902;-69
2023/10/18 14:42:29;;;;;;;;;;;;;;;;;;5049982;28;1441;-69
2023/10/18 14:44:58;;;;;;;;;;;;;;;;;;5052025;28;899;-69
2023/10/18 14:47:24;;;;;;;;;;;;;;;;;;5050271;28;1301;-69
2023/10/18 14:49:50;;;;;;;;;;;;;;;;;;5050671;28;1165;-69
2023/10/18 14:52:19;;;;;;;;;;;;;;;;;;5050354;28;1443;-69
2023/10/18 14:54:45;;;;;;;;;;;;;;;;;;5051381;28;841;-69
2023/10/18 14:57:10;;;;;;;;;;;;;;;;;;5050133;28;1486;-69
2023/10/18 14:59:37;;;;;;;;;;;;;;;;;;5049324;28;1890;-69
2023/10/18 15:02:02;;;;;;;;;;;;;;;;;;5050723;28;1147;-69
2023/10/18 15:04:28;;;;;;;;;;;;;;;;;;5051382;28;1003;-68
2023/10/18 15:06:56;;;;;;;;;;;;;;;;;;5051762;28;890;-69
2023/10/18 15:09:21;;;;;;;;;;;;;;;;;;5033723;28;1487;-69
2023/10/18 15:11:51;;;;;;;;;;;;;;;;;;5051088;28;829;-69
2023/10/18 15:14:18;;;;;;;;;;;;;;;;;;5051574;28;789;-69
2023/10/18 15:16:45;;;;;;;;;;;;;;;;;;5051479;28;916;-69
2023/10/18 15:19:13;;;;;;;;;;;;;;;;;;5049801;28;1957;-69
2023/10/18 15:21:38;;;;;;;;;;;;;;;;;;5050679;28;919;-69
2023/10/18 15:24:03;;;;;;;;;;;;;;;;;;5051215;28;1003;-69
2023/10/18 15:26:29;;;;;;;;;;;;;;;;;;5051619;28;840;-69
2023/10/18 15:28:55;;;;;;;;;;;;;;;;;;5050759;28;1226;-69
2023/10/18 15:31:21;;;;;;;;;;;;;;;;;;5033602;28;1716;-69
2023/10/18 15:33:47;;;;;;;;;;;;;;;;;;5051400;28;1192;-69
2023/10/18 15:36:15;;;;;;;;;;;;;;;;;;5054064;28;1442;-69
2023/10/18 15:38:43;;;;;;;;;;;;;;;;;;5055671;28;1902;-69
2023/10/18 15:41:08;;;;;;;;;;;;;;;;;;5054464;28;1429;-69
2023/10/18 15:43:43;;;;;;;;;;;;;;;;;;5055308;28;841;-70
2023/10/18 15:46:08;;;;;;;;;;;;;;;;;;5055086;28;908;-70
2023/10/18 15:48:34;;;;;;;;;;;;;;;;;;5054693;28;904;-70
2023/10/18 15:50:59;;;;;;;;;;;;;;;;;;5054358;28;904;-69
2023/10/18 15:53:27;;;;;;;;;;;;;;;;;;5056307;28;1154;-69
2023/10/18 15:55:53;;;;;;;;;;;;;;;;;;5065359;28;1223;-70
2023/10/18 15:58:19;;;;;;;;;;;;;;;;;;5054246;28;1093;-71
2023/10/18 16:00:45;;;;;;;;;;;;;;;;;;5055152;28;1902;-69
2023/10/18 16:03:13;;;;;;;;;;;;;;;;;;5053194;28;1507;-69
2023/10/18 16:05:38;;;;;;;;;;;;;;;;;;5054787;28;947;-69
2023/10/18 16:08:04;;;;;;;;;;;;;;;;;;5054486;28;1001;-69
2023/10/18 16:10:30;;;;;;;;;;;;;;;;;;5052492;28;1281;-69
2023/10/18 16:12:55;;;;;;;;;;;;;;;;;;5054057;28;991;-69
2023/10/18 16:15:24;;;;;;;;;;;;;;;;;;5054511;28;860;-69
2023/10/18 16:17:52;;;;;;;;;;;;;;;;;;5053765;28;888;-69
2023/10/18 16:20:18;;;;;;;;;;;;;;;;;;5035883;28;1902;-70
2023/10/18 16:22:44;;;;;;;;;;;;;;;;;;5054692;28;1055;-69
2023/10/18 16:25:10;;;;;;;;;;;;;;;;;;5053033;28;1847;-69
2023/10/18 16:27:36;;;;;;;;;;;;;;;;;;5053720;28;868;-69
2023/10/18 16:30:05;;;;;;;;;;;;;;;;;;5054756;28;905;-69
2023/10/18 16:32:33;;;;;;;;;;;;;;;;;;5052348;28;1325;-69
2023/10/18 16:34:58;;;;;;;;;;;;;;;;;;5052490;28;1361;-69
2023/10/18 16:37:24;;;;;;;;;;;;;;;;;;5054658;28;881;-70
2023/10/18 16:39:49;;;;;;;;;;;;;;;;;;5053899;28;1902;-72
2023/10/18 16:42:15;;;;;;;;;;;;;;;;;;5053236;28;912;-69
2023/10/18 16:44:41;;;;;;;;;;;;;;;;;;5050112;28;857;-69
2023/10/18 16:47:07;;;;;;;;;;;;;;;;;;5053163;28;777;-69
2023/10/18 16:49:32;;;;;;;;;;;;;;;;;;5051333;28;1406;-69
2023/10/18 16:51:58;;;;;;;;;;;;;;;;;;5051810;28;1307;-69
2023/10/18 16:54:24;;;;;;;;;;;;;;;;;;5052160;28;817;-69
2023/10/18 16:56:49;;;;;;;;;;;;;;;;;;5051214;28;1175;-69
2023/10/18 16:59:14;;;;;;;;;;;;;;;;;;5052994;28;1971;-69
2023/10/18 17:01:40;;;;;;;;;;;;;;;;;;5052749;28;1216;-69
2023/10/18 17:04:05;;;;;;;;;;;;;;;;;;5051638;28;877;-69
2023/10/18 17:06:30;;;;;;;;;;;;;;;;;;5051526;28;1327;-69
2023/10/18 17:08:57;;;;;;;;;;;;;;;;;;5035192;28;1346;-69
2023/10/18 17:11:22;;;;;;;;;;;;;;;;;;5051755;28;1136;-69
2023/10/18 17:13:48;;;;;;;;;;;;;;;;;;5051076;28;1234;-69
2023/10/18 17:16:14;;;;;;;;;;;;;;;;;;5051710;28;1031;-69
2023/10/18 17:18:42;;;;;;;;;;;;;;;;;;5052737;28;1891;-70
2023/10/18 17:21:08;;;;;;;;;;;;;;;;;;5053456;28;861;-69
2023/10/18 17:23:33;;;;;;;;;;;;;;;;;;5051464;28;1196;-68
2023/10/18 17:25:59;;;;;;;;;;;;;;;;;;5052573;28;1275;-69
2023/10/18 17:28:25;;;;;;;;;;;;;;;;;;5056225;28;1223;-69
2023/10/18 17:30:50;;;;;;;;;;;;;;;;;;5039537;28;1433;-69
2023/10/18 17:33:16;;;;;;;;;;;;;;;;;;5034950;28;1274;-69
2023/10/18 17:35:42;;;;;;;;;;;;;;;;;;5052632;28;1003;-69
2023/10/18 17:38:13;;;;;;;;;;;;;;;;;;5050784;28;1110;-69
2023/10/18 17:40:39;;;;;;;;;;;;;;;;;;5051679;28;1984;-69
2023/10/18 17:43:04;;;;;;;;;;;;;;;;;;5052196;28;888;-69
2023/10/18 17:45:30;;;;;;;;;;;;;;;;;;5052228;28;912;-68
2023/10/18 17:47:55;;;;;;;;;;;;;;;;;;5050592;28;1405;-68
2023/10/18 17:50:22;;;;;;;;;;;;;;;;;;5051574;28;900;-69
2023/10/18 17:52:51;;;;;;;;;;;;;;;;;;5050488;28;836;-69
2023/10/18 17:55:17;;;;;;;;;;;;;;;;;;5049864;28;1616;-68
2023/10/18 17:57:47;;;;;;;;;;;;;;;;;;5051687;28;832;-68